createdAt,value
2023-04-11T00:03:19.602Z,32.58
2023-04-11T00:08:41.528Z,34.13
2023-04-11T00:14:03.426Z,28.40
2023-04-11T00:19:25.251Z,25.33
2023-04-11T00:24:47.073Z,29.23
2023-04-11T00:30:09.208Z,27.02
2023-04-11T00:35:31.063Z,24.23
2023-04-11T00:40:52.865Z,25.67
2023-04-11T00:46:16.045Z,28.35
2023-04-11T00:51:38.092Z,24.52
2023-04-11T00:57:01.072Z,20.13
2023-04-11T01:02:22.972Z,21.20
2023-04-11T01:07:48.676Z,18.25
2023-04-11T01:13:11.212Z,21.70
2023-04-11T01:18:33.260Z,17.73
2023-04-11T01:23:55.733Z,18.90
2023-04-11T01:29:17.617Z,18.40
2023-04-11T01:34:40.542Z,16.90
2023-04-11T01:40:02.694Z,18.42
2023-04-11T01:45:26.362Z,24.27
2023-04-11T01:50:49.451Z,19.08
2023-04-11T01:56:11.833Z,19.35
2023-04-11T02:01:34.447Z,18.48
2023-04-11T02:06:56.289Z,17.77
2023-04-11T02:12:18.116Z,18.98
2023-04-11T02:17:39.975Z,17.67
2023-04-11T02:23:01.869Z,19.95
2023-04-11T02:28:23.835Z,19.77
2023-04-11T02:33:45.690Z,22.80
2023-04-11T02:39:07.713Z,22.88
2023-04-11T02:44:29.537Z,19.30
2023-04-11T02:49:51.347Z,19.67
2023-04-11T02:55:13.189Z,20.05
2023-04-11T03:00:35.031Z,20.00
2023-04-11T03:05:56.851Z,21.27
2023-04-11T03:11:18.666Z,18.10
2023-04-11T03:16:40.514Z,19.17
2023-04-11T03:22:02.406Z,22.00
2023-04-11T03:27:24.220Z,19.88
2023-04-11T03:32:46.228Z,20.65
2023-04-11T03:38:08.054Z,18.67
2023-04-11T03:43:29.904Z,15.93
2023-04-11T03:48:51.747Z,17.90
2023-04-11T03:54:13.568Z,16.85
2023-04-11T03:59:35.414Z,16.55
2023-04-11T04:04:57.246Z,17.63
2023-04-11T04:10:19.094Z,15.90
2023-04-11T04:15:40.878Z,16.48
2023-04-11T04:21:02.726Z,15.73
2023-04-11T04:26:24.589Z,14.63
2023-04-11T04:31:46.465Z,12.52
2023-04-11T04:37:08.345Z,14.02
2023-04-11T04:42:30.283Z,13.23
2023-04-11T04:47:52.167Z,11.15
2023-04-11T04:53:14.012Z,14.23
2023-04-11T04:58:35.834Z,12.35
2023-04-11T05:03:57.894Z,12.40
2023-04-11T05:09:20.038Z,11.05
2023-04-11T05:14:42.281Z,11.80
2023-04-11T05:20:04.693Z,10.05
2023-04-11T05:25:26.543Z,9.90
2023-04-11T05:30:48.370Z,13.25
2023-04-11T05:36:10.613Z,9.75
2023-04-11T05:41:32.519Z,9.18
2023-04-11T05:46:54.318Z,9.70
2023-04-11T05:52:16.131Z,10.27
2023-04-11T05:57:38.003Z,11.50
2023-04-11T06:03:00.304Z,10.35
2023-04-11T06:08:22.395Z,10.25
2023-04-11T06:13:44.208Z,10.15
2023-04-11T06:19:06.061Z,10.73
2023-04-11T06:24:38.932Z,9.07
2023-04-11T06:30:00.812Z,10.00
2023-04-11T06:35:22.727Z,10.18
2023-04-11T06:40:44.523Z,9.13
2023-04-11T06:46:06.559Z,9.88
2023-04-11T06:51:28.495Z,11.65
2023-04-11T06:56:50.400Z,8.75
2023-04-11T07:02:12.272Z,8.18
2023-04-11T07:07:34.163Z,6.47
2023-04-11T07:12:56.020Z,6.95
2023-04-11T07:18:17.889Z,6.82
2023-04-11T07:23:40.253Z,6.35
2023-04-11T07:29:02.072Z,6.15
2023-04-11T07:34:24.101Z,6.22
2023-04-11T07:39:45.897Z,5.65
2023-04-11T07:45:08.382Z,5.55
2023-04-11T07:50:30.177Z,6.47
2023-04-11T07:55:51.997Z,5.40
2023-04-11T08:01:24.559Z,5.70
2023-04-11T08:06:46.356Z,4.60
2023-04-11T08:12:09.232Z,5.68
2023-04-11T08:17:31.150Z,4.68
2023-04-11T08:22:53.040Z,5.05
2023-04-11T08:28:14.877Z,6.47
2023-04-11T08:33:36.730Z,4.50
2023-04-11T08:38:58.563Z,4.13
2023-04-11T08:44:20.456Z,3.08
2023-04-11T08:49:42.276Z,3.10
2023-04-11T08:55:04.314Z,3.03
2023-04-11T09:00:27.262Z,4.80
2023-04-11T09:05:49.130Z,3.58
2023-04-11T09:11:10.929Z,4.78
2023-04-11T09:16:32.862Z,3.67
2023-04-11T09:21:57.011Z,3.33
2023-04-11T09:27:19.000Z,3.78
2023-04-11T09:32:40.856Z,3.15
2023-04-11T09:38:02.736Z,4.00
2023-04-11T09:43:24.769Z,3.03
2023-04-11T09:48:48.092Z,3.22
2023-04-11T09:54:10.679Z,3.20
2023-04-11T09:59:35.515Z,2.15
2023-04-11T10:04:58.354Z,4.07
2023-04-11T10:10:24.138Z,3.30
2023-04-11T10:16:05.557Z,4.30
2023-04-11T10:21:30.232Z,5.55
2023-04-11T10:26:54.674Z,5.70
2023-04-11T10:32:16.448Z,7.40
2023-04-11T10:37:38.279Z,7.47
2023-04-11T10:43:19.461Z,4.15
2023-04-11T10:49:01.394Z,4.82
2023-04-11T10:54:26.796Z,5.55
2023-04-11T10:59:51.684Z,4.70
2023-04-11T11:05:17.513Z,4.05
2023-04-11T11:10:45.224Z,6.20
2023-04-11T11:16:08.956Z,3.55
2023-04-11T11:21:31.725Z,4.25
2023-04-11T11:26:54.918Z,4.45
2023-04-11T11:32:24.737Z,14.65
2023-04-11T11:37:46.792Z,5.82
2023-04-11T11:43:08.672Z,4.90
2023-04-11T11:48:30.495Z,4.32
2023-04-11T11:54:05.907Z,5.90
2023-04-11T11:59:27.989Z,4.50
2023-04-11T12:04:50.261Z,5.85
2023-04-11T12:10:17.156Z,4.97
2023-04-11T12:15:40.212Z,5.32
2023-04-11T12:21:02.087Z,5.28
2023-04-11T12:26:23.945Z,4.95
2023-04-11T12:31:46.095Z,9.98
2023-04-11T12:37:08.108Z,6.63
2023-04-11T12:42:29.935Z,9.40
2023-04-11T12:47:52.294Z,10.32
2023-04-11T12:53:14.259Z,6.32
2023-04-11T12:58:36.140Z,6.75
2023-04-11T13:03:58.135Z,5.68
2023-04-11T13:09:20.126Z,6.07
2023-04-11T13:14:42.026Z,5.50
2023-04-11T13:20:04.665Z,7.55
2023-04-11T13:25:26.562Z,7.60
2023-04-11T13:30:48.468Z,7.00
2023-04-11T13:36:10.919Z,9.15
2023-04-11T13:41:32.871Z,7.40
2023-04-11T13:46:54.695Z,10.43
2023-04-11T13:52:16.547Z,6.40
2023-04-11T13:57:38.363Z,6.07
2023-04-11T14:03:00.460Z,5.93
2023-04-11T14:08:22.327Z,6.55
2023-04-11T14:13:44.116Z,6.53
2023-04-11T14:19:05.921Z,5.85
2023-04-11T14:24:28.648Z,6.25
2023-04-11T14:29:50.453Z,5.40
2023-04-11T14:35:12.304Z,6.10
2023-04-11T14:40:34.229Z,6.85
2023-04-11T14:45:56.438Z,5.22
2023-04-11T14:51:18.283Z,4.65
2023-04-11T14:56:40.145Z,5.97
2023-04-11T15:02:02.071Z,7.47
2023-04-11T15:07:23.914Z,6.18
2023-04-11T15:12:46.097Z,7.00
2023-04-11T15:18:37.077Z,5.50
2023-04-11T15:23:58.975Z,4.72
2023-04-11T15:29:20.864Z,4.13
2023-04-11T15:34:42.753Z,5.13
2023-04-11T15:40:05.007Z,8.77
2023-04-11T15:45:26.850Z,5.95
2023-04-11T15:50:48.809Z,4.90
2023-04-11T15:56:11.153Z,4.65
2023-04-11T16:01:33.186Z,6.30
2023-04-11T16:06:55.126Z,8.05
2023-04-11T16:12:18.677Z,6.32
2023-04-11T16:17:40.626Z,8.32
2023-04-11T16:23:02.566Z,6.07
2023-04-11T16:28:24.518Z,8.25
2023-04-11T16:33:46.336Z,6.90
2023-04-11T16:39:08.192Z,7.45
2023-04-11T16:44:30.018Z,5.80
2023-04-11T16:49:52.360Z,8.45
2023-04-11T16:55:14.294Z,9.95
2023-04-11T17:00:36.256Z,8.30
2023-04-11T17:05:58.231Z,6.60
2023-04-11T17:11:20.072Z,8.35
2023-04-11T17:16:42.351Z,7.30
2023-04-11T17:22:04.144Z,7.20
2023-04-11T17:27:25.937Z,8.98
2023-04-11T17:32:48.436Z,6.20
2023-04-11T17:38:10.677Z,11.55
2023-04-11T17:43:32.921Z,8.18
2023-04-11T17:48:54.797Z,9.10
2023-04-11T18:00:36.748Z,7.95
2023-04-11T18:06:03.554Z,10.63
2023-04-11T18:11:25.488Z,9.57
2023-04-11T18:16:47.352Z,9.10
2023-04-11T18:22:09.298Z,9.07
2023-04-11T18:27:32.294Z,11.63
2023-04-11T18:32:54.276Z,11.07
2023-04-11T18:38:16.202Z,10.10
2023-04-11T18:43:38.922Z,12.07
2023-04-11T18:49:01.215Z,11.35
2023-04-11T18:54:23.037Z,11.75
2023-04-11T18:59:46.379Z,13.93
2023-04-11T19:05:11.202Z,12.25
2023-04-11T19:10:33.286Z,13.00
2023-04-11T19:15:55.378Z,11.07
2023-04-11T19:21:17.236Z,11.50
2023-04-11T19:26:39.076Z,11.65
2023-04-11T19:32:01.080Z,11.07
2023-04-11T19:37:22.953Z,12.95
2023-04-11T19:42:45.228Z,13.40
2023-04-11T19:48:07.102Z,12.48
2023-04-11T19:53:29.041Z,12.73
2023-04-11T19:58:50.955Z,13.90
2023-04-11T20:04:12.970Z,13.68
2023-04-11T20:09:34.887Z,11.80
2023-04-11T20:14:56.781Z,13.88
2023-04-11T20:20:19.928Z,14.98
2023-04-11T20:25:42.363Z,12.75
2023-04-11T20:31:04.388Z,15.68
2023-04-11T20:36:26.368Z,14.02
2023-04-11T20:41:48.514Z,17.02
2023-04-11T20:47:10.345Z,17.20
2023-04-11T20:52:32.314Z,17.00
2023-04-11T20:57:54.200Z,17.98
2023-04-11T21:03:16.172Z,17.05
2023-04-11T21:08:38.122Z,18.70
2023-04-11T21:13:59.957Z,18.45
2023-04-11T21:19:21.805Z,16.45
2023-04-11T21:24:43.639Z,22.10
2023-04-11T21:30:06.037Z,16.25
2023-04-11T21:35:28.117Z,19.52
2023-04-11T21:40:49.921Z,17.48
2023-04-11T21:46:11.804Z,17.60
2023-04-11T21:51:33.620Z,15.48
2023-04-11T21:56:55.399Z,13.73
2023-04-11T22:02:17.282Z,16.88
2023-04-11T22:07:39.353Z,16.77
2023-04-11T22:13:01.262Z,16.65
2023-04-11T22:18:23.072Z,18.90
2023-04-11T22:23:51.950Z,18.38
2023-04-11T22:29:13.845Z,20.00
2023-04-11T22:34:35.781Z,18.02
2023-04-11T22:39:57.649Z,18.00
2023-04-11T22:45:20.716Z,18.02
2023-04-11T22:50:43.410Z,18.95
2023-04-11T22:56:05.557Z,20.27
2023-04-11T23:01:27.481Z,19.98
2023-04-11T23:06:50.549Z,20.38
2023-04-11T23:12:12.504Z,20.55
2023-04-11T23:17:34.321Z,20.35
2023-04-11T23:22:56.118Z,17.48
2023-04-11T23:28:17.921Z,20.42
2023-04-11T23:33:39.734Z,18.08
2023-04-11T23:39:01.548Z,16.13
2023-04-11T23:44:23.475Z,16.35
2023-04-11T23:49:45.313Z,18.77
2023-04-11T23:55:07.893Z,22.02
